Time;durP1;ratioP1;P1;durP2;ratioP2;P2;SDS_P1;SDS_P2;PMS_P1;PMS_P2;Temp;Humidity;BMP_temperature;BMP_pressure;BME280_temperature;BME280_humidity;BME280_pressure;Samples;Min_cycle;Max_cycle;Signal;HPM_P1;HPM_P2
2021/09/04 00:00:26;;;;;;;13.13;8.60;;;14.60;99.90;;;;;;5116578;28;20043;-50
2021/09/04 00:02:52;;;;;;;14.20;8.73;;;14.50;99.90;;;;;;5116608;28;20028;-49
2021/09/04 00:05:18;;;;;;;10.90;7.70;;;14.50;99.90;;;;;;5116555;28;20019;-50
2021/09/04 00:07:44;;;;;;;10.13;7.97;;;14.50;99.90;;;;;;5116390;28;20092;-50
2021/09/04 00:10:10;;;;;;;10.32;8.35;;;14.60;99.90;;;;;;5116396;28;20463;-50
2021/09/04 00:12:37;;;;;;;11.57;7.60;;;14.70;99.90;;;;;;5116359;28;20391;-49
2021/09/04 00:15:04;;;;;;;10.98;7.82;;;14.70;99.90;;;;;;5080573;28;20036;-49
2021/09/04 00:17:30;;;;;;;12.15;8.02;;;14.60;99.90;;;;;;5047467;28;20096;-50
2021/09/04 00:19:56;;;;;;;10.07;7.57;;;14.60;99.90;;;;;;5115908;28;20019;-49
2021/09/04 00:22:21;;;;;;;10.70;7.45;;;14.60;99.90;;;;;;5116330;28;20088;-50
2021/09/04 00:24:47;;;;;;;9.40;7.07;;;14.70;99.90;;;;;;5116111;28;20035;-49
2021/09/04 00:27:13;;;;;;;9.52;7.28;;;14.70;99.90;;;;;;5116191;28;20084;-51
2021/09/04 00:29:39;;;;;;;11.10;7.28;;;14.90;99.90;;;;;;5115946;28;20027;-49
2021/09/04 00:32:08;;;;;;;8.60;7.50;;;15.00;99.90;;;;;;5115979;28;20492;-49
2021/09/04 00:34:34;;;;;;;10.57;7.93;;;15.10;99.90;;;;;;5115900;28;20471;-49
2021/09/04 00:37:00;;;;;;;11.55;7.70;;;15.20;99.60;;;;;;5116072;28;20038;-50
2021/09/04 00:39:25;;;;;;;11.07;6.88;;;15.30;99.50;;;;;;5115567;28;20024;-50
2021/09/04 00:41:51;;;;;;;9.35;6.75;;;15.30;99.30;;;;;;5115751;28;20455;-49
2021/09/04 00:44:19;;;;;;;11.45;7.20;;;15.40;99.00;;;;;;5079850;28;20092;-51
2021/09/04 00:46:45;;;;;;;9.15;7.35;;;15.40;98.90;;;;;;5115844;28;20016;-49
2021/09/04 00:49:12;;;;;;;11.88;7.35;;;15.20;99.20;;;;;;5079896;28;20035;-51
2021/09/04 00:51:38;;;;;;;9.80;7.25;;;14.80;99.90;;;;;;5115720;28;20023;-51
2021/09/04 00:54:05;;;;;;;11.40;7.45;;;14.70;99.90;;;;;;5115414;28;20055;-49
2021/09/04 00:56:32;;;;;;;9.02;7.55;;;14.50;99.90;;;;;;5115584;28;20035;-48
2021/09/04 00:59:08;;;;;;;9.50;7.50;;;14.70;99.90;;;;;;5115523;28;20031;-49
2021/09/04 01:01:41;;;;;;;11.63;7.13;;;14.90;99.90;;;;;;5115188;28;20044;-49
2021/09/04 01:04:07;;;;;;;8.00;6.88;;;15.00;99.90;;;;;;5079786;28;20067;-51
2021/09/04 01:06:34;;;;;;;7.53;6.72;;;14.80;99.90;;;;;;5115330;28;20467;-51
2021/09/04 01:09:00;;;;;;;8.85;7.10;;;14.60;99.90;;;;;;5115465;28;20062;-50
2021/09/04 01:11:26;;;;;;;8.55;7.15;;;14.60;99.90;;;;;;5079560;28;20051;-49
2021/09/04 01:13:52;;;;;;;8.65;7.32;;;14.40;99.90;;;;;;5115447;28;20400;-48
2021/09/04 01:16:18;;;;;;;8.88;6.82;;;14.40;99.90;;;;;;5115144;28;20031;-51
2021/09/04 01:18:44;;;;;;;9.75;6.97;;;14.30;99.90;;;;;;5079266;28;20039;-50
2021/09/04 01:21:10;;;;;;;9.77;7.18;;;14.40;99.90;;;;;;5079208;28;20122;-50
2021/09/04 01:23:36;;;;;;;12.85;7.32;;;14.30;99.90;;;;;;5114973;28;20589;-49
2021/09/04 01:26:09;;;;;;;12.77;8.85;;;14.40;99.90;;;;;;5114901;28;20046;-51
2021/09/04 01:28:36;;;;;;;10.40;7.15;;;14.50;99.90;;;;;;5114854;28;20032;-49
2021/09/04 01:31:04;;;;;;;9.27;7.18;;;14.40;99.90;;;;;;5111428;28;20031;-50
2021/09/04 01:33:30;;;;;;;12.35;6.80;;;14.50;99.90;;;;;;5114728;28;20031;-50
2021/09/04 01:35:55;;;;;;;10.10;7.00;;;14.40;99.90;;;;;;5114606;28;20375;-49
2021/09/04 01:38:21;;;;;;;8.18;6.57;;;14.50;99.90;;;;;;5114729;28;20463;-49
2021/09/04 01:40:47;;;;;;;12.07;7.43;;;14.30;99.90;;;;;;5114847;28;20023;-51
2021/09/04 01:43:13;;;;;;;9.95;7.07;;;14.30;99.90;;;;;;5079165;28;20475;-49
2021/09/04 01:45:39;;;;;;;12.27;8.10;;;14.30;99.90;;;;;;5114452;28;20072;-50
2021/09/04 01:48:05;;;;;;;9.18;6.70;;;14.40;99.90;;;;;;5078769;28;20039;-49
2021/09/04 01:50:31;;;;;;;9.02;7.07;;;14.50;99.90;;;;;;5078612;28;20062;-50
2021/09/04 01:52:57;;;;;;;8.95;6.57;;;14.40;99.90;;;;;;5114589;28;20020;-49
2021/09/04 01:55:23;;;;;;;11.93;7.47;;;14.40;99.90;;;;;;5114227;28;20046;-51
2021/09/04 01:57:49;;;;;;;8.77;6.55;;;14.40;99.90;;;;;;5114379;28;20028;-49
2021/09/04 02:00:16;;;;;;;10.25;6.72;;;14.50;99.90;;;;;;5078510;28;20096;-50
2021/09/04 02:02:42;;;;;;;8.55;7.10;;;14.60;99.90;;;;;;5114181;28;20030;-49
2021/09/04 02:05:10;;;;;;;10.07;7.47;;;14.50;99.90;;;;;;5114380;28;20094;-49
2021/09/04 02:07:36;;;;;;;8.95;7.03;;;14.40;99.90;;;;;;5114242;28;20489;-49
2021/09/04 02:10:03;;;;;;;9.52;7.28;;;14.50;99.90;;;;;;5114122;28;20104;-49
2021/09/04 02:12:29;;;;;;;9.45;7.15;;;14.50;99.90;;;;;;5078362;28;20110;-49
2021/09/04 02:14:57;;;;;;;9.57;6.80;;;14.50;99.90;;;;;;5078768;28;20446;-49
2021/09/04 02:17:23;;;;;;;9.02;6.72;;;14.70;99.90;;;;;;5061979;28;20592;-50
2021/09/04 02:19:49;;;;;;;9.82;7.35;;;14.60;99.90;;;;;;5114103;28;20036;-49
2021/09/04 02:22:15;;;;;;;9.70;7.25;;;14.50;99.90;;;;;;5114109;28;20106;-50
2021/09/04 02:24:40;;;;;;;11.98;7.85;;;14.20;99.90;;;;;;5078310;28;20386;-50
2021/09/04 02:27:09;;;;;;;10.30;6.78;;;14.40;99.90;;;;;;5078314;28;20046;-50
2021/09/04 02:29:35;;;;;;;9.77;7.25;;;14.20;99.90;;;;;;5061446;28;20032;-50
2021/09/04 02:32:01;;;;;;;10.13;7.38;;;13.90;99.90;;;;;;5071450;28;20041;-49
2021/09/04 02:34:27;;;;;;;8.88;6.50;;;14.00;99.90;;;;;;5054543;28;20110;-50
2021/09/04 02:36:52;;;;;;;10.02;7.07;;;13.90;99.90;;;;;;5071077;28;20041;-51
2021/09/04 02:39:18;;;;;;;9.60;7.20;;;13.90;99.90;;;;;;5054696;28;20068;-51
2021/09/04 02:41:44;;;;;;;9.60;6.43;;;13.80;99.90;;;;;;5071576;28;20035;-50
2021/09/04 02:44:10;;;;;;;8.77;7.32;;;13.80;99.90;;;;;;5024402;28;20549;-49
2021/09/04 02:46:36;;;;;;;7.97;6.32;;;13.90;99.90;;;;;;5075070;28;20036;-50
2021/09/04 02:49:01;;;;;;;9.20;6.75;;;14.10;99.90;;;;;;5075172;28;20036;-51
2021/09/04 02:51:27;;;;;;;10.68;6.10;;;14.20;99.90;;;;;;5041758;28;20036;-50
2021/09/04 02:53:53;;;;;;;9.45;6.50;;;14.40;99.90;;;;;;5058519;28;20494;-51
2021/09/04 02:56:19;;;;;;;7.65;6.00;;;14.70;99.90;;;;;;5075176;28;20033;-50
2021/09/04 02:58:44;;;;;;;9.40;6.78;;;14.80;99.90;;;;;;5074797;28;20116;-51
2021/09/04 03:01:10;;;;;;;8.82;6.40;;;14.80;99.90;;;;;;5058183;28;20052;-51
2021/09/04 03:03:36;;;;;;;7.60;6.03;;;14.80;99.70;;;;;;5076841;28;20042;-51
2021/09/04 03:06:02;;;;;;;6.75;5.25;;;14.70;99.50;;;;;;5117802;28;20509;-49
2021/09/04 03:08:29;;;;;;;10.00;6.30;;;14.60;99.60;;;;;;5081930;28;20032;-51
2021/09/04 03:10:55;;;;;;;8.98;6.03;;;14.60;99.40;;;;;;5117561;28;20028;-51
2021/09/04 03:13:21;;;;;;;8.38;5.85;;;14.70;99.30;;;;;;5117593;28;20107;-50
2021/09/04 03:15:50;;;;;;;9.63;5.93;;;14.70;99.10;;;;;;5081856;28;20454;-50
2021/09/04 03:18:15;;;;;;;10.07;6.32;;;14.80;99.10;;;;;;5117732;28;20028;-49
2021/09/04 03:20:41;;;;;;;8.85;6.43;;;14.80;99.00;;;;;;5117189;28;20505;-50
2021/09/04 03:23:07;;;;;;;13.98;7.85;;;14.90;98.90;;;;;;5117314;28;20023;-49
2021/09/04 03:25:33;;;;;;;10.48;7.45;;;14.90;98.80;;;;;;5117232;28;20405;-51
2021/09/04 03:28:01;;;;;;;9.32;6.38;;;15.00;98.90;;;;;;5098356;28;20081;-50
2021/09/04 03:30:27;;;;;;;9.52;7.53;;;15.00;98.90;;;;;;5117468;28;20106;-51
2021/09/04 03:32:52;;;;;;;16.00;10.75;;;15.10;98.90;;;;;;5117101;28;20055;-51
2021/09/04 03:35:18;;;;;;;15.70;10.07;;;15.10;99.10;;;;;;5015117;28;20085;-51
2021/09/04 03:37:44;;;;;;;16.38;9.38;;;15.10;99.70;;;;;;5064804;28;20057;-51
2021/09/04 03:40:10;;;;;;;12.70;10.35;;;15.10;99.20;;;;;;5081377;28;20395;-51
2021/09/04 03:42:36;;;;;;;17.73;9.90;;;15.10;99.40;;;;;;5117315;28;20031;-49
2021/09/04 03:45:02;;;;;;;13.15;10.25;;;15.10;99.40;;;;;;5116862;28;20417;-50
2021/09/04 03:47:28;;;;;;;14.63;9.90;;;15.10;99.40;;;;;;5065137;28;20040;-50
2021/09/04 03:49:53;;;;;;;14.18;10.85;;;15.10;99.40;;;;;;5081236;28;20463;-49
2021/09/04 03:52:19;;;;;;;15.80;10.77;;;15.10;99.40;;;;;;5064546;28;20111;-49
2021/09/04 03:54:45;;;;;;;18.23;11.30;;;15.10;99.50;;;;;;5014108;28;20034;-50
2021/09/04 03:57:11;;;;;;;13.95;11.02;;;15.10;99.70;;;;;;5080807;28;20459;-50
2021/09/04 03:59:36;;;;;;;18.67;12.15;;;15.20;99.70;;;;;;5354482;22;21434;-49
2021/09/04 04:02:03;;;;;;;18.00;11.38;;;15.20;99.70;;;;;;5096598;28;20032;-49
2021/09/04 04:04:28;;;;;;;13.88;10.90;;;15.20;99.70;;;;;;5096549;28;20421;-50
2021/09/04 04:06:54;;;;;;;15.85;10.63;;;15.20;99.60;;;;;;5096205;28;20028;-48
2021/09/04 04:09:20;;;;;;;16.90;10.82;;;15.20;99.40;;;;;;5095955;28;20052;-50
2021/09/04 04:11:45;;;;;;;16.45;10.27;;;15.20;99.30;;;;;;5096102;28;20081;-48
2021/09/04 04:14:11;;;;;;;15.50;10.23;;;15.20;99.20;;;;;;5096326;28;20031;-50
2021/09/04 04:16:37;;;;;;;21.80;9.90;;;15.20;98.90;;;;;;5095797;28;20524;-50
2021/09/04 04:19:03;;;;;;;19.15;10.85;;;15.30;98.80;;;;;;5096252;28;20023;-49
2021/09/04 04:21:29;;;;;;;19.58;10.65;;;15.20;99.00;;;;;;5095719;28;20020;-50
2021/09/04 04:23:54;;;;;;;12.50;9.68;;;15.20;99.00;;;;;;5078040;28;20074;-48
2021/09/04 04:26:20;;;;;;;20.25;10.38;;;15.20;98.90;;;;;;5096105;28;20031;-50
2021/09/04 04:28:46;;;;;;;20.33;11.30;;;15.20;99.00;;;;;;5096096;28;20016;-50
2021/09/04 04:31:11;;;;;;;27.85;11.82;;;15.20;99.00;;;;;;5060730;28;20036;-50
2021/09/04 04:33:37;;;;;;;12.25;10.38;;;15.20;98.90;;;;;;5095668;28;20455;-50
2021/09/04 04:36:03;;;;;;;16.40;10.32;;;15.20;98.90;;;;;;5095594;28;20033;-50
2021/09/04 04:38:29;;;;;;;15.40;10.35;;;15.20;98.90;;;;;;5095871;28;20463;-51
2021/09/04 04:40:55;;;;;;;12.57;9.85;;;15.20;98.90;;;;;;5095458;28;20024;-48
2021/09/04 04:43:20;;;;;;;14.27;10.65;;;15.20;98.80;;;;;;5095698;28;20020;-50
2021/09/04 04:45:46;;;;;;;17.08;10.27;;;15.20;98.80;;;;;;5095304;28;20114;-49
2021/09/04 04:48:12;;;;;;;15.90;10.95;;;15.20;98.90;;;;;;5060152;28;20113;-48
2021/09/04 04:50:38;;;;;;;17.17;11.15;;;15.20;99.00;;;;;;5095275;28;20023;-50
2021/09/04 04:53:03;;;;;;;16.23;11.30;;;15.30;99.00;;;;;;5095563;28;20028;-50
2021/09/04 04:55:29;;;;;;;17.30;11.68;;;15.30;99.10;;;;;;5059913;28;20044;-49
2021/09/04 04:57:55;;;;;;;21.02;11.35;;;15.40;99.20;;;;;;5043442;28;20077;-49
2021/09/04 05:00:20;;;;;;;13.88;10.80;;;15.50;99.30;;;;;;5094935;28;20052;-50
2021/09/04 05:02:46;;;;;;;15.30;11.10;;;15.50;99.30;;;;;;5077215;28;20032;-49
2021/09/04 05:05:12;;;;;;;16.58;11.55;;;15.60;99.40;;;;;;5043063;28;20063;-50
2021/09/04 05:07:38;;;;;;;16.98;10.85;;;15.60;99.40;;;;;;5095362;28;20515;-48
2021/09/04 05:10:04;;;;;;;15.57;11.10;;;15.70;99.50;;;;;;5043200;28;20032;-49
2021/09/04 05:12:30;;;;;;;15.00;11.20;;;15.70;99.40;;;;;;5076475;28;20391;-51
2021/09/04 05:14:55;;;;;;;15.70;11.60;;;15.70;99.70;;;;;;5095047;28;20016;-49
2021/09/04 05:17:21;;;;;;;19.33;13.07;;;15.80;99.70;;;;;;5076894;28;20039;-50
2021/09/04 05:19:47;;;;;;;18.23;11.10;;;15.80;99.80;;;;;;5094913;28;20023;-49
2021/09/04 05:22:13;;;;;;;13.93;10.63;;;15.90;99.90;;;;;;5042870;28;20115;-49
2021/09/04 05:24:38;;;;;;;13.50;11.40;;;15.90;99.90;;;;;;5095285;28;20103;-51
2021/09/04 05:27:04;;;;;;;14.95;11.82;;;16.00;99.90;;;;;;5094944;28;20093;-48
2021/09/04 05:29:30;;;;;;;18.75;13.05;;;16.10;99.90;;;;;;5059316;28;20043;-49
2021/09/04 05:31:56;;;;;;;18.85;12.70;;;16.10;99.90;;;;;;5094514;28;20031;-49
2021/09/04 05:34:22;;;;;;;15.90;13.75;;;15.90;99.90;;;;;;5094455;28;20027;-50
2021/09/04 05:36:48;;;;;;;16.58;13.05;;;15.70;99.90;;;;;;5042525;28;20032;-49
2021/09/04 05:39:14;;;;;;;20.30;15.20;;;15.60;99.90;;;;;;5094581;28;20455;-51
2021/09/04 05:41:39;;;;;;;18.48;14.43;;;15.50;99.90;;;;;;5094622;28;20367;-50
2021/09/04 05:44:05;;;;;;;17.40;13.32;;;15.40;99.90;;;;;;5094626;28;20099;-50
2021/09/04 05:46:31;;;;;;;16.45;13.65;;;15.40;99.90;;;;;;5094221;28;20046;-51
2021/09/04 05:48:57;;;;;;;18.08;13.18;;;15.50;99.90;;;;;;5059577;28;20082;-50
2021/09/04 05:51:22;;;;;;;17.88;13.23;;;15.60;99.90;;;;;;5094121;28;20028;-50
2021/09/04 05:53:48;;;;;;;17.05;12.35;;;15.80;99.90;;;;;;5075694;28;20043;-48
2021/09/04 05:56:14;;;;;;;22.02;14.02;;;15.90;99.90;;;;;;5094352;28;20028;-48
2021/09/04 05:58:40;;;;;;;14.32;12.73;;;16.00;99.90;;;;;;5093071;28;20430;-51
2021/09/04 06:01:06;;;;;;;15.75;12.98;;;16.10;99.90;;;;;;5093689;28;20056;-50
2021/09/04 06:03:32;;;;;;;15.40;13.25;;;16.20;99.90;;;;;;5094004;28;20016;-51
2021/09/04 06:05:57;;;;;;;17.58;13.20;;;16.20;99.90;;;;;;5094408;28;20099;-51
2021/09/04 06:08:24;;;;;;;15.75;12.27;;;16.40;99.90;;;;;;5042406;28;20494;-50
2021/09/04 06:10:50;;;;;;;14.27;12.07;;;16.40;99.90;;;;;;5057886;28;20028;-50
2021/09/04 06:13:16;;;;;;;15.05;12.32;;;16.70;99.90;;;;;;5090735;28;20059;-48
2021/09/04 06:15:42;;;;;;;16.33;12.55;;;16.80;99.90;;;;;;5071146;28;20056;-52
2021/09/04 06:18:08;;;;;;;15.73;11.63;;;16.80;99.90;;;;;;5034356;28;20032;-49
2021/09/04 06:20:34;;;;;;;15.30;12.32;;;16.90;99.90;;;;;;5058153;28;20032;-50
2021/09/04 06:23:00;;;;;;;15.77;12.43;;;17.10;99.90;;;;;;5056879;28;20040;-48
2021/09/04 06:25:25;;;;;;;17.98;12.70;;;17.20;99.90;;;;;;5092005;28;20032;-49
2021/09/04 06:27:51;;;;;;;19.52;12.13;;;17.20;99.90;;;;;;5092467;28;20020;-50
2021/09/04 06:30:17;;;;;;;17.40;11.82;;;17.50;99.90;;;;;;5089392;28;20441;-51
2021/09/04 06:32:43;;;;;;;15.20;12.48;;;17.50;99.90;;;;;;5083823;28;20551;-52
2021/09/04 06:35:10;;;;;;;15.05;12.02;;;17.60;99.90;;;;;;5088079;28;20467;-49
2021/09/04 06:37:36;;;;;;;16.05;12.52;;;17.80;99.90;;;;;;5083886;28;20052;-50
2021/09/04 06:40:03;;;;;;;15.98;12.95;;;18.00;99.90;;;;;;5065920;28;20566;-48
2021/09/04 06:42:29;;;;;;;13.57;12.05;;;18.00;99.70;;;;;;5085199;28;20019;-49
2021/09/04 06:44:54;;;;;;;16.70;12.57;;;18.10;99.40;;;;;;5085025;28;20375;-49
2021/09/04 06:47:20;;;;;;;15.52;11.30;;;18.20;98.60;;;;;;5083870;28;20016;-48
2021/09/04 06:49:46;;;;;;;15.55;11.23;;;18.30;98.30;;;;;;5077833;28;20392;-50
2021/09/04 06:52:11;;;;;;;17.73;11.00;;;18.60;97.90;;;;;;5088554;28;20035;-49
2021/09/04 06:54:37;;;;;;;15.98;11.15;;;18.70;97.40;;;;;;5075124;28;20429;-50
2021/09/04 06:57:04;;;;;;;16.48;12.63;;;18.90;97.40;;;;;;5093610;28;20035;-49
2021/09/04 06:59:30;;;;;;;17.73;11.68;;;19.00;97.90;;;;;;5093025;28;20072;-48
2021/09/04 07:01:56;;;;;;;14.18;11.05;;;19.20;96.90;;;;;;5093321;28;20044;-50
2021/09/04 07:04:21;;;;;;;12.82;11.05;;;19.30;96.60;;;;;;5093650;28;20027;-48
2021/09/04 07:06:47;;;;;;;15.85;11.43;;;19.40;96.20;;;;;;5054881;28;20044;-51
2021/09/04 07:09:13;;;;;;;15.73;10.90;;;19.70;96.80;;;;;;5092293;28;20073;-50
2021/09/04 07:11:39;;;;;;;13.73;10.55;;;19.90;96.30;;;;;;5092812;28;20044;-49
2021/09/04 07:14:04;;;;;;;14.75;10.57;;;20.10;96.10;;;;;;5056956;28;20059;-50
2021/09/04 07:16:30;;;;;;;15.75;11.05;;;20.30;95.70;;;;;;5023836;28;20047;-52
2021/09/04 07:18:56;;;;;;;15.13;10.02;;;20.30;94.50;;;;;;5073558;28;20136;-50
2021/09/04 07:21:22;;;;;;;15.27;10.88;;;20.50;94.20;;;;;;5093395;28;20028;-51
2021/09/04 07:23:48;;;;;;;14.32;11.20;;;20.60;94.10;;;;;;5093388;28;20456;-49
2021/09/04 07:26:14;;;;;;;15.55;10.27;;;20.80;94.10;;;;;;5093460;28;20028;-48
2021/09/04 07:28:40;;;;;;;15.70;10.05;;;21.10;94.00;;;;;;5093648;28;20055;-50
2021/09/04 07:31:05;;;;;;;18.02;10.18;;;21.10;92.90;;;;;;5097713;28;20512;-49
2021/09/04 07:33:31;;;;;;;14.10;9.35;;;21.30;92.60;;;;;;5096562;28;20457;-51
2021/09/04 07:35:57;;;;;;;16.52;10.07;;;21.40;92.30;;;;;;5096729;28;20051;-48
2021/09/04 07:38:25;;;;;;;14.18;9.82;;;21.60;92.20;;;;;;5096997;28;20458;-49
2021/09/04 07:40:51;;;;;;;12.18;10.27;;;21.70;91.70;;;;;;5097157;28;20074;-48
2021/09/04 07:43:17;;;;;;;10.80;8.20;;;22.00;92.10;;;;;;5096967;28;20044;-50
2021/09/04 07:45:43;;;;;;;10.20;8.18;;;22.20;90.20;;;;;;5096570;28;20028;-48
2021/09/04 07:48:10;;;;;;;15.45;8.85;;;22.50;90.20;;;;;;5097692;28;20020;-48
2021/09/04 07:50:36;;;;;;;11.13;8.65;;;22.60;89.60;;;;;;5097126;28;20024;-50
2021/09/04 07:53:02;;;;;;;12.13;8.68;;;22.80;89.50;;;;;;5096407;28;20031;-50
2021/09/04 07:55:27;;;;;;;11.63;8.52;;;23.10;90.00;;;;;;5096591;28;20367;-51
2021/09/04 07:57:53;;;;;;;12.38;8.15;;;23.30;87.10;;;;;;5096334;28;20031;-50
2021/09/04 08:00:19;;;;;;;13.98;8.93;;;23.50;87.40;;;;;;5096253;28;20131;-50
2021/09/04 08:02:45;;;;;;;11.93;7.75;;;23.70;86.40;;;;;;5078335;28;20412;-50
2021/09/04 08:05:10;;;;;;;14.88;7.32;;;24.10;85.00;;;;;;5096222;28;20470;-50
2021/09/04 08:07:37;;;;;;;11.65;8.05;;;24.20;84.00;;;;;;5077612;28;20132;-49
2021/09/04 08:10:04;;;;;;;15.80;7.20;;;24.60;82.70;;;;;;5096212;28;20021;-51
2021/09/04 08:12:30;;;;;;;12.68;6.63;;;24.70;81.00;;;;;;5011401;28;20039;-50
2021/09/04 08:14:56;;;;;;;18.55;9.93;;;24.80;74.90;;;;;;5077551;28;20383;-50
2021/09/04 08:17:22;;;;;;;12.00;7.95;;;25.10;76.20;;;;;;5077990;28;20097;-50
2021/09/04 08:19:48;;;;;;;8.63;5.28;;;25.30;76.20;;;;;;5096219;28;20520;-49
2021/09/04 08:22:14;;;;;;;14.50;5.45;;;25.30;73.60;;;;;;5073737;28;20025;-51
2021/09/04 08:24:39;;;;;;;6.93;5.18;;;25.20;72.70;;;;;;5073747;28;20443;-49
2021/09/04 08:27:05;;;;;;;7.07;5.25;;;24.80;73.50;;;;;;5073717;28;20028;-50
2021/09/04 08:29:31;;;;;;;8.45;4.72;;;25.20;74.70;;;;;;5073469;28;20476;-51
2021/09/04 08:31:57;;;;;;;7.57;4.40;;;25.70;74.50;;;;;;5073564;28;20419;-50
2021/09/04 08:34:22;;;;;;;6.35;4.05;;;26.00;74.20;;;;;;5073364;28;20035;-51
2021/09/04 08:36:48;;;;;;;6.22;3.88;;;26.30;70.80;;;;;;5039944;28;20044;-49
2021/09/04 08:39:14;;;;;;;4.57;3.22;;;26.50;70.90;;;;;;5073700;28;20025;-51
2021/09/04 08:41:40;;;;;;;4.28;3.25;;;26.70;69.30;;;;;;5040375;28;20149;-49
2021/09/04 08:44:06;;;;;;;6.28;3.90;;;27.00;68.70;;;;;;5074023;28;20363;-50
2021/09/04 08:46:35;;;;;;;5.85;3.40;;;27.20;69.30;;;;;;5073047;28;20479;-52
2021/09/04 08:49:03;;;;;;;5.68;2.65;;;27.20;65.90;;;;;;5073221;28;20034;-50
2021/09/04 08:51:29;;;;;;;5.10;3.00;;;26.30;66.20;;;;;;5073041;28;20503;-52
2021/09/04 08:53:55;;;;;;;9.73;3.72;;;25.80;67.30;;;;;;5091205;28;20443;-51
2021/09/04 08:56:21;;;;;;;4.70;3.15;;;25.90;66.70;;;;;;5095446;28;20372;-51
2021/09/04 08:58:47;;;;;;;8.10;3.38;;;26.40;67.00;;;;;;5095452;28;20050;-49
2021/09/04 09:01:22;;;;;;;4.80;2.80;;;27.00;67.80;;;;;;5076355;28;20055;-50
2021/09/04 09:03:49;;;;;;;6.38;3.00;;;27.40;64.90;;;;;;5095367;28;20020;-51
2021/09/04 09:06:26;;;;;;;4.70;3.25;;;27.40;65.00;;;;;;5095385;28;20103;-49
2021/09/04 09:08:51;;;;;;;8.68;3.20;;;27.50;63.60;;;;;;5060018;28;20426;-51
2021/09/04 09:11:17;;;;;;;7.75;4.85;;;27.70;63.80;;;;;;5095227;28;20020;-51
2021/09/04 09:13:47;;;;;;;7.20;4.20;;;27.50;63.80;;;;;;5094852;28;20020;-51
2021/09/04 09:16:16;;;;;;;4.10;2.65;;;27.70;64.10;;;;;;5094985;28;20056;-50
2021/09/04 09:18:54;;;;;;;4.70;3.70;;;27.20;63.70;;;;;;5095146;28;20531;-50
2021/09/04 09:21:20;;;;;;;8.25;3.78;;;;;;;;;;5094997;28;20028;-50
2021/09/04 09:23:46;;;;;;;7.88;4.43;;;;;;;;;;5092704;28;20111;-49
2021/09/04 09:26:12;;;;;;;5.22;3.25;;;;;;;;;;5093354;28;20020;-50
2021/09/04 09:28:39;;;;;;;5.97;3.67;;;;;;;;;;5093454;28;20035;-50
2021/09/04 09:31:05;;;;;;;5.32;2.63;;;29.00;94.60;;;;;;5093259;28;20115;-51
2021/09/04 09:33:32;;;;;;;4.55;3.17;;;29.00;62.10;;;;;;5057708;28;20421;-49
2021/09/04 09:36:00;;;;;;;4.38;3.10;;;28.50;62.50;;;;;;5056936;28;20503;-51
2021/09/04 09:38:28;;;;;;;4.32;2.80;;;29.10;62.60;;;;;;5093574;28;20028;-49
2021/09/04 09:40:55;;;;;;;5.15;2.83;;;29.40;60.70;;;;;;5093166;28;20047;-50
2021/09/04 09:43:23;;;;;;;4.78;2.63;;;;;;;;;;5093042;28;20115;-52
2021/09/04 09:45:53;;;;;;;5.45;2.78;;;;;;;;;;5093778;28;20020;-51
2021/09/04 09:48:22;;;;;;;5.68;3.38;;;29.80;79.30;;;;;;5094089;28;20020;-51
2021/09/04 09:50:48;;;;;;;4.97;3.00;;;29.40;86.40;;;;;;5058902;28;20028;-50
2021/09/04 09:53:17;;;;;;;5.63;2.83;;;;;;;;;;5025077;28;20067;-51
2021/09/04 09:55:45;;;;;;;3.97;2.60;;;28.50;88.40;;;;;;5093984;28;20115;-49
2021/09/04 09:58:12;;;;;;;3.90;2.60;;;29.10;90.80;;;;;;5093787;28;20043;-50
2021/09/04 10:00:38;;;;;;;3.50;2.65;;;;;;;;;;5058312;28;20051;-51
2021/09/04 10:03:05;;;;;;;8.10;2.90;;;;;;;;;;5093753;28;20039;-49
2021/09/04 10:05:31;;;;;;;4.53;3.20;;;30.50;78.50;;;;;;5094057;28;20031;-51
2021/09/04 10:07:59;;;;;;;3.80;2.80;;;30.40;63.50;;;;;;5092602;28;20031;-51
2021/09/04 10:10:27;;;;;;;4.65;2.30;;;30.20;63.10;;;;;;5040447;28;20123;-49
2021/09/04 10:12:54;;;;;;;4.38;2.60;;;30.00;62.90;;;;;;5092695;28;20099;-51
2021/09/04 10:15:23;;;;;;;3.30;2.42;;;29.70;61.50;;;;;;5040128;28;20047;-51
2021/09/04 10:17:52;;;;;;;3.33;2.67;;;29.80;61.10;;;;;;5092579;28;20024;-50
2021/09/04 10:20:18;;;;;;;5.97;2.50;;;;;;;;;;5040146;28;20048;-52
2021/09/04 10:22:44;;;;;;;3.42;2.20;;;;;;;;;;5092344;28;20028;-52
2021/09/04 10:25:15;;;;;;;4.25;2.47;;;;;;;;;;5092469;28;20036;-50
2021/09/04 10:27:45;;;;;;;3.30;2.30;;;;;;;;;;5056804;28;20052;-51
2021/09/04 10:30:22;;;;;;;2.90;2.10;;;;;;;;;;5089875;28;20039;-51
2021/09/04 10:32:57;;;;;;;3.65;2.28;;;;;;;;;;5092436;28;20031;-50
2021/09/04 10:35:38;;;;;;;5.85;2.60;;;;;;;;;;5056037;28;20398;-51
2021/09/04 10:38:19;;;;;;;3.53;2.28;;;;;;;;;;5092274;28;20064;-50
2021/09/04 10:40:50;;;;;;;4.20;2.47;;;;;;;;;;5056802;28;20562;-51
2021/09/04 10:43:16;;;;;;;3.55;2.50;;;;;;;;;;5092284;28;20115;-52
2021/09/04 10:45:48;;;;;;;4.95;2.55;;;31.50;55.30;;;;;;5092327;28;20024;-50
2021/09/04 10:48:18;;;;;;;4.03;2.55;;;31.60;55.80;;;;;;5091829;28;20123;-50
2021/09/04 10:51:03;;;;;;;3.60;2.33;;;31.10;63.50;;;;;;5093210;28;20028;-50
2021/09/04 10:53:49;;;;;;;2.83;2.33;;;30.90;72.20;;;;;;5058222;28;20334;-50
2021/09/04 10:56:29;;;;;;;2.72;1.92;;;30.70;66.60;;;;;;5093247;28;20115;-51
2021/09/04 10:58:55;;;;;;;3.30;2.65;;;30.30;54.00;;;;;;5093311;28;20032;-49
2021/09/04 11:01:52;;;;;;;3.45;2.22;;;30.60;54.40;;;;;;5093036;28;20063;-50
2021/09/04 11:04:18;;;;;;;3.15;2.30;;;30.80;55.30;;;;;;5094905;28;20047;-51
2021/09/04 11:06:49;;;;;;;2.95;2.15;;;30.90;53.70;;;;;;5078809;28;20039;-52
2021/09/04 11:09:17;;;;;;;2.58;2.20;;;;;;;;;;5097341;28;20031;-52
2021/09/04 11:11:43;;;;;;;3.03;2.28;;;;;;;;;;5097276;28;20024;-51
2021/09/04 11:14:18;;;;;;;4.22;2.90;;;;;;;;;;5097163;28;20028;-51
2021/09/04 11:16:49;;;;;;;3.40;2.22;;;;;;;;;;5097246;28;20063;-51
2021/09/04 11:19:21;;;;;;;4.93;2.75;;;;;;;;;;5096257;28;20105;-52
2021/09/04 11:21:51;;;;;;;2.75;2.15;;;;;;;;;;5095879;28;20032;-51
2021/09/04 11:24:18;;;;;;;3.58;2.33;;;;;;;;;;5095802;28;20086;-52
2021/09/04 11:26:58;;;;;;;5.05;2.50;;;31.50;59.30;;;;;;5095785;28;20107;-50
2021/09/04 11:29:25;;;;;;;6.80;2.20;;;31.30;55.40;;;;;;5095708;28;20055;-52
2021/09/04 11:32:02;;;;;;;6.25;2.83;;;31.30;51.70;;;;;;5076784;28;20069;-50
2021/09/04 11:34:39;;;;;;;13.02;2.80;;;31.70;54.70;;;;;;5095080;28;20363;-51
2021/09/04 11:37:15;;;;;;;3.03;2.20;;;;;;;;;;5095481;28;20039;-51
2021/09/04 11:39:41;;;;;;;2.83;2.20;;;32.10;52.20;;;;;;5095490;28;20032;-51
2021/09/04 11:42:12;;;;;;;3.03;2.35;;;;;;;;;;5095802;28;20039;-51
2021/09/04 11:44:44;;;;;;;3.03;2.47;;;;;;;;;;5096984;28;20024;-51
2021/09/04 11:47:13;;;;;;;5.25;2.58;;;;;;;;;;5096585;28;20451;-50
2021/09/04 11:49:46;;;;;;;5.53;2.15;;;32.40;52.20;;;;;;5096426;28;20036;-51
2021/09/04 11:52:23;;;;;;;3.97;2.60;;;32.20;52.80;;;;;;5096529;28;20081;-50
2021/09/04 11:54:50;;;;;;;4.15;2.35;;;32.10;52.50;;;;;;5096497;28;20035;-51
2021/09/04 11:57:27;;;;;;;5.57;2.75;;;32.20;52.20;;;;;;5096218;28;20487;-51
2021/09/04 12:00:06;;;;;;;5.53;2.42;;;31.70;53.90;;;;;;5095954;28;20060;-50
2021/09/04 12:02:34;;;;;;;2.97;2.42;;;32.00;54.60;;;;;;5044499;28;20131;-50
2021/09/04 12:05:03;;;;;;;4.95;2.33;;;;;;;;;;5096500;28;20443;-49
2021/09/04 12:07:30;;;;;;;3.20;2.35;;;;;;;;;;5096320;28;20027;-50
2021/09/04 12:09:57;;;;;;;4.72;3.03;;;32.40;53.50;;;;;;5095906;28;20036;-49
2021/09/04 12:12:25;;;;;;;4.00;2.15;;;32.40;54.30;;;;;;5095960;28;20047;-50
2021/09/04 12:14:51;;;;;;;4.43;2.72;;;32.60;55.30;;;;;;5095832;28;20479;-51
2021/09/04 12:17:17;;;;;;;5.15;2.40;;;32.80;69.10;;;;;;5095902;28;20036;-51
2021/09/04 12:19:43;;;;;;;4.95;2.70;;;32.60;68.30;;;;;;5077318;28;20119;-52
2021/09/04 12:22:09;;;;;;;4.13;3.17;;;32.30;62.50;;;;;;5095985;28;20383;-51
2021/09/04 12:24:35;;;;;;;8.73;7.15;;;31.50;53.30;;;;;;5043982;28;20032;-54
2021/09/04 12:27:03;;;;;;;4.32;2.83;;;31.70;53.40;;;;;;5095701;28;20024;-52
2021/09/04 12:29:30;;;;;;;5.93;3.08;;;31.70;53.60;;;;;;5077351;28;20075;-51
2021/09/04 12:32:12;;;;;;;4.50;3.00;;;31.30;53.50;;;;;;5096117;28;20024;-51
2021/09/04 12:34:38;;;;;;;;;;;31.80;54.10;;;;;;5078557;28;20043;-52
2021/09/04 12:37:26;;;;;;;2.90;2.47;;;32.10;53.80;;;;;;5077076;28;19919;-51
2021/09/04 12:39:52;;;;;;;4.45;2.47;;;32.10;52.80;;;;;;5095575;28;20024;-49
2021/09/04 12:42:18;;;;;;;3.63;2.33;;;32.30;53.20;;;;;;5095627;28;20020;-50
2021/09/04 12:44:46;;;;;;;7.10;2.83;;;32.10;52.60;;;;;;5095341;28;20067;-51
2021/09/04 12:47:13;;;;;;;3.97;3.15;;;31.90;52.50;;;;;;5076799;28;20028;-51
2021/09/04 12:49:49;;;;;;;3.03;2.42;;;32.00;52.70;;;;;;5095429;28;20099;-49